Aliquippa, Pennsylvania
Current Conditions -  °F | °C
As of 3:51 PM on Monday 24 Nov 2014 (Local Time) from KPIT Reporting Station
Scattered Clouds Scattered Clouds  
Wind Chill: 65°   Ceiling: Unl
Heat Index: 65°   Visibility: 10mi
Dew Point: 42°   Wind: 30mph
Humidity: 43%   Direction: 230°SW
Pressure: 29.5"   Gusts: 48mph
Location:  40.62°N, 80.24°W
Report Text: KPIT 242051Z 23026G42KT 10SM SCT050 18/06 A2950 RMK AO2 PK WND 24042/2049 RAE1955 SLP992 6//// T01830056 53037 $
Loading
Personal Weather Stations






























Interactive Weather Map New forecast layout! Learn more

10-Day Weather Forecast

Advertisements
Track Severe Weather on mobile